Time,TemperatureF,DewpointF,PressureIn,WindDirection,WindDirectionDegrees,WindSpeedMPH,WindSpeedGustMPH,Humidity,HourlyPrecipIn,Conditions,Clouds,dailyrainin,SoftwareType,DateUTC
2013-02-13 00:02:00,-4.8,-7.9,29.84,SW,217,0.0,0.0,86,0.00,,,0.00,LWC V2.00 B2112,2013-02-13 09:02:00,
2013-02-13 00:07:00,-5.0,-8.1,29.84,SW,217,0.0,0.0,86,0.00,,,0.00,LWC V2.00 B2112,2013-02-13 09:07:00,
2013-02-13 00:12:00,-5.2,-8.3,29.84,SW,217,0.0,0.0,86,0.00,,,0.00,LWC V2.00 B2112,2013-02-13 09:12:00,
2013-02-13 00:17:00,-5.3,-8.4,29.84,SW,217,0.0,0.0,86,0.00,,,0.00,LWC V2.00 B2112,2013-02-13 09:17:00,
2013-02-13 00:22:00,-5.5,-8.8,29.84,SW,217,0.0,0.0,85,0.00,,,0.00,LWC V2.00 B2112,2013-02-13 09:22:00,
2013-02-13 00:27:00,-5.7,-9.0,29.84,SW,217,0.0,0.0,85,0.00,,,0.00,LWC V2.00 B2112,2013-02-13 09:27:00,
2013-02-13 00:32:00,-5.9,-9.2,29.84,SW,217,0.0,0.0,85,0.00,,,0.00,LWC V2.00 B2112,2013-02-13 09:32:00,
2013-02-13 00:37:00,-6.2,-9.5,29.84,SW,217,0.0,0.0,85,0.00,,,0.00,LWC V2.00 B2112,2013-02-13 09:37:00,
2013-02-13 00:42:00,-6.3,-9.6,29.84,SW,217,0.0,0.0,85,0.00,,,0.00,LWC V2.00 B2112,2013-02-13 09:42:00,
2013-02-13 00:47:00,-6.4,-9.7,29.84,SW,217,0.0,0.0,85,0.00,,,0.00,LWC V2.00 B2112,2013-02-13 09:47:00,
2013-02-13 00:52:00,-6.4,-9.7,29.84,SW,217,0.0,0.0,85,0.00,,,0.00,LWC V2.00 B2112,2013-02-13 09:52:00,
2013-02-13 00:57:00,-6.5,-9.8,29.84,SW,217,0.0,0.0,85,0.00,,,0.00,LWC V2.00 B2112,2013-02-13 09:57:00,
2013-02-13 01:02:00,-6.5,-9.8,29.84,SW,217,0.0,0.0,85,0.00,,,0.00,LWC V2.00 B2112,2013-02-13 10:02:00,
2013-02-13 01:07:00,-6.6,-9.9,29.84,SW,217,0.0,0.0,85,0.00,,,0.00,LWC V2.00 B2112,2013-02-13 10:07:00,
2013-02-13 01:12:00,-6.6,-9.9,29.84,SW,217,0.0,0.0,85,0.00,,,0.00,LWC V2.00 B2112,2013-02-13 10:12:00,
2013-02-13 01:17:00,-6.6,-9.9,29.84,SW,217,0.0,0.0,85,0.00,,,0.00,LWC V2.00 B2112,2013-02-13 10:17:00,
2013-02-13 01:22:00,-6.5,-9.8,29.84,SW,217,0.0,0.0,85,0.00,,,0.00,LWC V2.00 B2112,2013-02-13 10:22:00,
2013-02-13 01:27:00,-6.5,-9.8,29.84,SW,217,0.0,0.0,85,0.00,,,0.00,LWC V2.00 B2112,2013-02-13 10:27:00,
2013-02-13 01:32:00,-6.5,-9.8,29.84,SW,217,0.0,0.0,85,0.00,,,0.00,LWC V2.00 B2112,2013-02-13 10:32:00,
2013-02-13 01:37:00,-6.5,-9.8,29.83,SW,217,0.0,0.0,85,0.00,,,0.00,LWC V2.00 B2112,2013-02-13 10:37:00,
2013-02-13 01:42:00,-6.6,-9.9,29.84,SW,217,0.0,0.0,85,0.00,,,0.00,LWC V2.00 B2112,2013-02-13 10:42:00,
2013-02-13 01:47:00,-6.5,-9.8,29.84,SW,217,0.0,0.0,85,0.00,,,0.00,LWC V2.00 B2112,2013-02-13 10:47:00,
2013-02-13 01:52:00,-6.5,-9.8,29.83,SW,217,0.0,0.0,85,0.00,,,0.00,LWC V2.00 B2112,2013-02-13 10:52:00,
2013-02-13 01:57:00,-6.5,-9.8,29.83,SW,217,0.0,0.0,85,0.00,,,0.00,LWC V2.00 B2112,2013-02-13 10:57:00,
2013-02-13 02:02:00,-6.4,-9.7,29.84,SW,217,0.0,0.0,85,0.00,,,0.00,LWC V2.00 B2112,2013-02-13 11:02:00,
2013-02-13 02:07:00,-6.3,-9.6,29.84,SW,217,0.0,0.0,85,0.00,,,0.00,LWC V2.00 B2112,2013-02-13 11:07:00,
2013-02-13 02:12:00,-6.5,-9.8,29.84,SW,217,0.0,0.0,85,0.00,,,0.00,LWC V2.00 B2112,2013-02-13 11:12:00,
2013-02-13 02:17:00,-6.6,-9.9,29.84,SW,217,0.0,0.0,85,0.00,,,0.00,LWC V2.00 B2112,2013-02-13 11:17:00,
2013-02-13 02:22:00,-6.8,-10.1,29.84,SW,217,0.0,0.0,85,0.00,,,0.00,LWC V2.00 B2112,2013-02-13 11:22:00,
2013-02-13 02:27:00,-6.8,-10.1,29.84,SW,217,0.0,0.0,85,0.00,,,0.00,LWC V2.00 B2112,2013-02-13 11:27:00,
2013-02-13 02:32:00,-6.8,-10.1,29.84,SW,217,0.0,0.0,85,0.00,,,0.00,LWC V2.00 B2112,2013-02-13 11:32:00,
2013-02-13 02:37:00,-7.0,-10.3,29.84,SW,217,0.0,0.0,85,0.00,,,0.00,LWC V2.00 B2112,2013-02-13 11:37:00,
2013-02-13 02:42:00,-7.2,-10.5,29.83,SW,217,0.0,0.0,85,0.00,,,0.00,LWC V2.00 B2112,2013-02-13 11:42:00,
2013-02-13 02:47:00,-7.3,-10.6,29.84,SW,217,0.0,0.0,85,0.00,,,0.00,LWC V2.00 B2112,2013-02-13 11:47:00,
2013-02-13 02:52:00,-7.3,-10.6,29.84,SW,217,0.0,0.0,85,0.00,,,0.00,LWC V2.00 B2112,2013-02-13 11:52:00,
2013-02-13 02:57:00,-7.4,-10.7,29.84,SW,217,0.0,0.0,85,0.00,,,0.00,LWC V2.00 B2112,2013-02-13 11:57:00,
2013-02-13 03:02:00,-7.4,-10.7,29.84,SW,217,0.0,0.0,85,0.00,,,0.00,LWC V2.00 B2112,2013-02-13 12:02:00,
2013-02-13 03:07:00,-7.3,-10.6,29.84,SW,218,0.0,0.0,85,0.00,,,0.00,LWC V2.00 B2112,2013-02-13 12:07:00,
2013-02-13 03:12:00,-7.2,-10.5,29.84,SW,218,0.0,0.0,85,0.00,,,0.00,LWC V2.00 B2112,2013-02-13 12:12:00,
2013-02-13 03:17:00,-7.1,-10.4,29.84,SW,218,0.0,0.0,85,0.00,,,0.00,LWC V2.00 B2112,2013-02-13 12:17:00,
2013-02-13 03:22:00,-7.0,-10.3,29.84,SW,218,0.0,0.0,85,0.00,,,0.00,LWC V2.00 B2112,2013-02-13 12:22:00,
2013-02-13 03:27:00,-7.0,-10.3,29.83,SW,218,0.0,0.0,85,0.00,,,0.00,LWC V2.00 B2112,2013-02-13 12:27:00,
2013-02-13 03:32:00,-7.2,-10.5,29.84,SW,218,0.0,0.0,85,0.00,,,0.00,LWC V2.00 B2112,2013-02-13 12:32:00,
2013-02-13 03:37:00,-7.3,-10.6,29.84,SW,218,0.0,0.0,85,0.00,,,0.00,LWC V2.00 B2112,2013-02-13 12:37:00,
2013-02-13 03:42:00,-7.4,-10.7,29.83,SW,218,0.0,0.0,85,0.00,,,0.00,LWC V2.00 B2112,2013-02-13 12:42:00,
2013-02-13 03:47:00,-7.5,-10.8,29.83,SW,218,0.0,0.0,85,0.00,,,0.00,LWC V2.00 B2112,2013-02-13 12:47:00,
2013-02-13 03:52:00,-7.6,-10.9,29.83,SW,218,0.0,0.0,85,0.00,,,0.00,LWC V2.00 B2112,2013-02-13 12:52:00,
2013-02-13 03:57:00,-7.7,-11.0,29.83,SW,218,0.0,0.0,85,0.00,,,0.00,LWC V2.00 B2112,2013-02-13 12:57:00,
2013-02-13 04:02:00,-7.8,-11.1,29.83,SW,218,0.0,0.0,85,0.00,,,0.00,LWC V2.00 B2112,2013-02-13 13:02:00,
2013-02-13 04:07:00,-7.9,-11.4,29.83,SW,218,0.0,0.0,84,0.00,,,0.00,LWC V2.00 B2112,2013-02-13 13:07:00,
2013-02-13 04:12:00,-7.9,-11.2,29.83,SW,218,0.0,0.0,85,0.00,,,0.00,LWC V2.00 B2112,2013-02-13 13:12:00,
2013-02-13 04:17:00,-8.1,-11.4,29.83,SW,218,0.0,0.0,85,0.00,,,0.00,LWC V2.00 B2112,2013-02-13 13:17:00,
2013-02-13 04:22:00,-8.1,-11.4,29.83,SW,218,0.0,0.0,85,0.00,,,0.00,LWC V2.00 B2112,2013-02-13 13:22:00,
2013-02-13 04:27:00,-8.1,-11.4,29.83,SW,218,0.0,0.0,85,0.00,,,0.00,LWC V2.00 B2112,2013-02-13 13:27:00,
2013-02-13 04:32:00,-8.2,-11.5,29.83,SW,218,0.0,0.0,85,0.00,,,0.00,LWC V2.00 B2112,2013-02-13 13:32:00,
2013-02-13 04:37:00,-8.2,-11.5,29.83,SW,218,0.0,0.0,85,0.00,,,0.00,LWC V2.00 B2112,2013-02-13 13:37:00,
2013-02-13 04:42:00,-8.2,-11.5,29.83,SW,218,0.0,0.0,85,0.00,,,0.00,LWC V2.00 B2112,2013-02-13 13:42:00,
2013-02-13 04:47:00,-8.2,-11.5,29.83,SW,218,0.0,0.0,85,0.00,,,0.00,LWC V2.00 B2112,2013-02-13 13:47:00,
2013-02-13 04:53:00,-8.1,-11.4,29.83,SW,218,0.0,0.0,85,0.00,,,0.00,LWC V2.00 B2112,2013-02-13 13:53:00,
2013-02-13 04:58:00,-8.0,-11.3,29.83,SW,218,0.0,0.0,85,0.00,,,0.00,LWC V2.00 B2112,2013-02-13 13:58:00,
2013-02-13 05:03:00,-7.9,-11.2,29.83,SW,218,0.0,0.0,85,0.00,,,0.00,LWC V2.00 B2112,2013-02-13 14:03:00,
2013-02-13 05:08:00,-7.9,-11.2,29.83,SW,218,0.0,0.0,85,0.00,,,0.00,LWC V2.00 B2112,2013-02-13 14:08:00,
2013-02-13 05:13:00,-7.9,-11.2,29.83,SW,218,0.0,0.0,85,0.00,,,0.00,LWC V2.00 B2112,2013-02-13 14:13:00,
2013-02-13 05:18:00,-7.9,-11.2,29.83,SW,218,0.0,0.0,85,0.00,,,0.00,LWC V2.00 B2112,2013-02-13 14:18:00,
2013-02-13 05:23:00,-7.9,-11.2,29.83,SW,218,0.0,0.0,85,0.00,,,0.00,LWC V2.00 B2112,2013-02-13 14:23:00,
2013-02-13 05:28:00,-7.9,-11.2,29.83,SW,218,0.0,0.0,85,0.00,,,0.00,LWC V2.00 B2112,2013-02-13 14:28:00,
2013-02-13 05:33:00,-7.7,-11.0,29.83,SW,218,0.0,0.0,85,0.00,,,0.00,LWC V2.00 B2112,2013-02-13 14:33:00,
2013-02-13 05:38:00,-7.7,-11.0,29.83,SW,218,0.0,0.0,85,0.00,,,0.00,LWC V2.00 B2112,2013-02-13 14:38:00,
2013-02-13 05:43:00,-7.8,-11.1,29.83,SW,218,0.0,0.0,85,0.00,,,0.00,LWC V2.00 B2112,2013-02-13 14:43:00,
2013-02-13 05:48:00,-7.7,-11.0,29.83,SW,218,0.0,0.0,85,0.00,,,0.00,LWC V2.00 B2112,2013-02-13 14:48:00,
2013-02-13 05:53:00,-7.5,-10.8,29.83,SW,218,0.0,0.0,85,0.00,,,0.00,LWC V2.00 B2112,2013-02-13 14:53:00,
2013-02-13 05:58:00,-7.4,-10.7,29.83,SW,218,0.0,0.0,85,0.00,,,0.00,LWC V2.00 B2112,2013-02-13 14:58:00,
2013-02-13 06:03:00,-7.4,-10.7,29.83,SW,218,0.0,0.0,85,0.00,,,0.00,LWC V2.00 B2112,2013-02-13 15:03:00,
2013-02-13 06:08:00,-7.3,-10.6,29.83,SW,218,0.0,0.0,85,0.00,,,0.00,LWC V2.00 B2112,2013-02-13 15:08:00,
2013-02-13 06:13:00,-7.2,-10.5,29.83,SW,218,0.0,0.0,85,0.00,,,0.00,LWC V2.00 B2112,2013-02-13 15:13:00,
2013-02-13 06:18:00,-7.3,-10.6,29.83,SW,218,0.0,0.0,85,0.00,,,0.00,LWC V2.00 B2112,2013-02-13 15:18:00,
2013-02-13 06:23:00,-7.2,-10.5,29.83,SW,218,0.0,0.0,85,0.00,,,0.00,LWC V2.00 B2112,2013-02-13 15:23:00,
2013-02-13 06:28:00,-7.1,-10.4,29.83,SW,218,0.0,0.0,85,0.00,,,0.00,LWC V2.00 B2112,2013-02-13 15:28:00,
2013-02-13 06:33:00,-7.1,-10.4,29.82,SW,218,0.0,0.0,85,0.00,,,0.00,LWC V2.00 B2112,2013-02-13 15:33:00,
2013-02-13 06:38:00,-7.0,-10.3,29.82,SW,218,0.0,0.0,85,0.00,,,0.00,LWC V2.00 B2112,2013-02-13 15:38:00,
2013-02-13 06:43:00,-7.1,-10.4,29.82,SW,218,0.0,0.0,85,0.00,,,0.00,LWC V2.00 B2112,2013-02-13 15:43:00,
2013-02-13 06:48:00,-7.1,-10.4,29.82,SW,218,0.0,0.0,85,0.00,,,0.00,LWC V2.00 B2112,2013-02-13 15:48:00,
2013-02-13 06:53:00,-6.9,-10.2,29.82,SW,218,0.0,0.0,85,0.00,,,0.00,LWC V2.00 B2112,2013-02-13 15:53:00,
2013-02-13 06:58:00,-6.9,-10.2,29.82,SW,218,0.0,0.0,85,0.00,,,0.00,LWC V2.00 B2112,2013-02-13 15:58:00,
2013-02-13 07:03:00,-6.8,-10.1,29.82,SW,218,0.0,0.0,85,0.00,,,0.00,LWC V2.00 B2112,2013-02-13 16:03:00,
2013-02-13 07:08:00,-6.7,-10.0,29.82,SW,218,0.0,0.0,85,0.00,,,0.00,LWC V2.00 B2112,2013-02-13 16:08:00,
2013-02-13 07:13:00,-6.7,-10.0,29.82,SW,218,0.0,0.0,85,0.00,,,0.00,LWC V2.00 B2112,2013-02-13 16:13:00,
2013-02-13 07:18:00,-6.7,-10.0,29.82,SW,218,0.0,0.0,85,0.00,,,0.00,LWC V2.00 B2112,2013-02-13 16:18:00,
2013-02-13 07:23:00,-6.5,-9.8,29.82,SW,218,0.0,0.0,85,0.00,,,0.00,LWC V2.00 B2112,2013-02-13 16:23:00,
2013-02-13 07:28:00,-6.5,-9.8,29.82,SW,218,0.0,0.0,85,0.00,,,0.00,LWC V2.00 B2112,2013-02-13 16:28:00,
2013-02-13 07:33:00,-6.5,-9.8,29.82,SW,218,0.0,0.0,85,0.00,,,0.00,LWC V2.00 B2112,2013-02-13 16:33:00,
2013-02-13 07:38:00,-6.5,-9.8,29.82,SW,218,0.0,0.0,85,0.00,,,0.00,LWC V2.00 B2112,2013-02-13 16:38:00,
2013-02-13 07:43:00,-6.5,-9.8,29.82,SW,218,0.0,0.0,85,0.00,,,0.00,LWC V2.00 B2112,2013-02-13 16:43:00,
2013-02-13 07:48:00,-6.5,-9.8,29.82,SW,218,0.0,0.0,85,0.00,,,0.00,LWC V2.00 B2112,2013-02-13 16:48:00,
2013-02-13 07:53:00,-6.8,-10.1,29.82,SW,218,0.0,0.0,85,0.00,,,0.00,LWC V2.00 B2112,2013-02-13 16:53:00,
2013-02-13 07:58:00,-7.1,-10.4,29.82,SW,218,0.0,0.0,85,0.00,,,0.00,LWC V2.00 B2112,2013-02-13 16:58:00,
2013-02-13 08:03:00,-7.4,-10.7,29.82,SW,218,0.0,0.0,85,0.00,,,0.00,LWC V2.00 B2112,2013-02-13 17:03:00,
2013-02-13 08:08:00,-7.5,-10.8,29.82,SW,218,0.0,0.0,85,0.00,,,0.00,LWC V2.00 B2112,2013-02-13 17:08:00,
2013-02-13 08:13:00,-7.6,-11.1,29.82,SW,218,0.0,0.0,84,0.00,,,0.00,LWC V2.00 B2112,2013-02-13 17:13:00,
2013-02-13 08:18:00,-7.6,-11.1,29.82,SW,218,0.0,0.0,84,0.00,,,0.00,LWC V2.00 B2112,2013-02-13 17:18:00,
2013-02-13 08:23:00,-7.4,-10.7,29.82,SW,218,0.0,0.0,85,0.00,,,0.00,LWC V2.00 B2112,2013-02-13 17:23:00,
2013-02-13 08:28:00,-7.3,-10.6,29.82,SW,218,0.0,0.0,85,0.00,,,0.00,LWC V2.00 B2112,2013-02-13 17:28:00,
2013-02-13 08:33:00,-7.1,-10.4,29.82,SW,218,0.0,0.0,85,0.00,,,0.00,LWC V2.00 B2112,2013-02-13 17:33:00,
2013-02-13 08:38:00,-7.0,-10.3,29.82,SW,218,0.0,0.0,85,0.00,,,0.00,LWC V2.00 B2112,2013-02-13 17:38:00,
2013-02-13 08:43:00,-6.8,-10.1,29.82,SW,218,0.0,0.0,85,0.00,,,0.00,LWC V2.00 B2112,2013-02-13 17:43:00,
2013-02-13 08:48:00,-6.7,-10.0,29.82,SW,218,0.0,0.0,85,0.00,,,0.00,LWC V2.00 B2112,2013-02-13 17:48:00,
2013-02-13 08:53:00,-6.6,-9.9,29.82,SW,218,0.0,0.0,85,0.00,,,0.00,LWC V2.00 B2112,2013-02-13 17:53:00,
2013-02-13 08:58:00,-6.4,-9.7,29.82,SE,138,0.0,0.0,85,0.00,,,0.00,LWC V2.00 B2112,2013-02-13 17:58:00,
2013-02-13 09:03:00,-6.2,-9.5,29.82,SE,138,0.0,0.0,85,0.00,,,0.00,LWC V2.00 B2112,2013-02-13 18:03:00,
2013-02-13 09:08:00,-6.2,-9.5,29.82,SE,138,0.0,0.0,85,0.00,,,0.00,LWC V2.00 B2112,2013-02-13 18:08:00,
2013-02-13 09:13:00,-6.1,-9.4,29.82,SE,138,0.0,0.0,85,0.00,,,0.00,LWC V2.00 B2112,2013-02-13 18:13:00,
2013-02-13 09:18:00,-5.9,-9.2,29.82,SE,138,0.0,0.0,85,0.00,,,0.00,LWC V2.00 B2112,2013-02-13 18:18:00,
2013-02-13 09:23:00,-5.7,-9.0,29.82,SE,138,0.0,0.0,85,0.00,,,0.00,LWC V2.00 B2112,2013-02-13 18:23:00,
2013-02-13 09:28:00,-5.5,-8.8,29.82,SE,138,0.0,0.0,85,0.00,,,0.00,LWC V2.00 B2112,2013-02-13 18:28:00,
2013-02-13 09:33:00,-5.3,-8.6,29.82,SE,138,0.0,0.0,85,0.00,,,0.00,LWC V2.00 B2112,2013-02-13 18:33:00,
2013-02-13 09:38:00,-5.2,-8.5,29.82,SE,138,0.0,0.0,85,0.00,,,0.00,LWC V2.00 B2112,2013-02-13 18:38:00,
2013-02-13 09:43:00,-5.0,-8.3,29.82,SE,138,0.0,0.0,85,0.00,,,0.00,LWC V2.00 B2112,2013-02-13 18:43:00,
2013-02-13 09:48:00,-5.0,-8.3,29.83,SE,138,0.0,0.0,85,0.00,,,0.00,LWC V2.00 B2112,2013-02-13 18:48:00,
2013-02-13 09:53:00,-5.0,-8.3,29.83,SE,138,0.0,0.0,85,0.00,,,0.00,LWC V2.00 B2112,2013-02-13 18:53:00,
2013-02-13 09:58:00,-5.0,-8.3,29.82,SE,138,0.0,0.0,85,0.00,,,0.00,LWC V2.00 B2112,2013-02-13 18:58:00,
2013-02-13 10:03:00,-4.9,-8.2,29.82,SE,138,0.0,0.0,85,0.00,,,0.00,LWC V2.00 B2112,2013-02-13 19:03:00,
2013-02-13 10:08:00,-4.8,-8.1,29.82,SE,138,0.0,0.0,85,0.00,,,0.00,LWC V2.00 B2112,2013-02-13 19:08:00,
2013-02-13 10:13:00,-4.7,-8.0,29.82,SE,138,0.0,0.0,85,0.00,,,0.00,LWC V2.00 B2112,2013-02-13 19:13:00,
2013-02-13 10:18:00,-4.6,-7.9,29.82,SE,138,0.0,0.0,85,0.00,,,0.00,LWC V2.00 B2112,2013-02-13 19:18:00,
2013-02-13 10:23:00,-4.6,-7.9,29.82,SE,138,0.0,0.0,85,0.00,,,0.00,LWC V2.00 B2112,2013-02-13 19:23:00,
2013-02-13 10:28:00,-4.5,-7.8,29.82,SE,138,0.0,0.0,85,0.00,,,0.00,LWC V2.00 B2112,2013-02-13 19:28:00,
2013-02-13 10:33:00,-4.3,-7.6,29.82,SE,138,0.0,0.0,85,0.00,,,0.00,LWC V2.00 B2112,2013-02-13 19:33:00,
2013-02-13 10:38:00,-4.0,-7.3,29.83,SE,138,0.0,0.0,85,0.00,,,0.00,LWC V2.00 B2112,2013-02-13 19:38:00,
2013-02-13 10:43:00,-3.8,-7.2,29.83,SE,138,0.0,0.0,85,0.00,,,0.00,LWC V2.00 B2112,2013-02-13 19:43:00,
2013-02-13 10:48:00,-3.7,-7.1,29.83,SE,138,0.0,0.0,85,0.00,,,0.00,LWC V2.00 B2112,2013-02-13 19:48:00,
2013-02-13 10:53:00,-3.7,-7.1,29.82,SE,138,0.0,0.0,85,0.00,,,0.00,LWC V2.00 B2112,2013-02-13 19:53:00,
2013-02-13 10:58:00,-3.6,-7.0,29.82,SE,138,0.0,0.0,85,0.00,,,0.00,LWC V2.00 B2112,2013-02-13 19:58:00,
2013-02-13 11:03:00,-3.6,-7.0,29.83,SE,138,0.0,0.0,85,0.00,,,0.00,LWC V2.00 B2112,2013-02-13 20:03:00,
2013-02-13 11:08:00,-3.5,-6.9,29.83,SE,138,0.0,0.0,85,0.00,,,0.00,LWC V2.00 B2112,2013-02-13 20:08:00,
2013-02-13 11:13:00,-3.2,-6.6,29.83,SE,138,0.0,0.0,85,0.00,,,0.00,LWC V2.00 B2112,2013-02-13 20:13:00,
2013-02-13 11:18:00,-3.1,-6.5,29.83,SE,138,0.0,0.0,85,0.00,,,0.00,LWC V2.00 B2112,2013-02-13 20:18:00,
2013-02-13 11:23:00,-2.8,-5.9,29.83,SE,138,0.0,0.0,86,0.00,,,0.00,LWC V2.00 B2112,2013-02-13 20:23:00,
2013-02-13 11:28:00,-2.3,-5.4,29.84,SE,138,0.0,0.0,86,0.00,,,0.00,LWC V2.00 B2112,2013-02-13 20:28:00,
2013-02-13 11:33:00,-2.1,-5.2,29.83,SE,138,0.0,0.0,86,0.00,,,0.00,LWC V2.00 B2112,2013-02-13 20:33:00,
2013-02-13 11:38:00,-2.1,-5.2,29.83,SE,138,0.0,0.0,86,0.00,,,0.00,LWC V2.00 B2112,2013-02-13 20:38:00,
2013-02-13 11:43:00,-2.0,-5.1,29.83,SE,138,0.0,0.0,86,0.00,,,0.00,LWC V2.00 B2112,2013-02-13 20:43:00,
2013-02-13 11:48:00,-1.8,-4.9,29.83,SE,138,0.0,0.0,86,0.00,,,0.00,LWC V2.00 B2112,2013-02-13 20:48:00,
2013-02-13 11:53:00,-1.4,-4.5,29.84,SE,138,0.0,0.0,86,0.00,,,0.00,LWC V2.00 B2112,2013-02-13 20:53:00,
2013-02-13 11:58:00,-1.0,-4.2,29.83,SE,138,0.0,0.0,86,0.00,,,0.00,LWC V2.00 B2112,2013-02-13 20:58:00,
2013-02-13 12:03:00,-0.5,-3.7,29.83,SE,138,0.0,0.0,86,0.00,,,0.00,LWC V2.00 B2112,2013-02-13 21:03:00,
2013-02-13 12:08:00,0.0,-3.2,29.83,SE,138,0.0,0.0,86,0.00,,,0.00,LWC V2.00 B2112,2013-02-13 21:08:00,
2013-02-13 12:13:00,0.6,-2.3,29.83,SE,138,0.0,0.0,87,0.00,,,0.00,LWC V2.00 B2112,2013-02-13 21:13:00,
2013-02-13 12:18:00,1.2,-1.7,29.83,SE,138,0.0,0.0,87,0.00,,,0.00,LWC V2.00 B2112,2013-02-13 21:18:00,
2013-02-13 12:23:00,1.7,-1.3,29.83,SE,138,0.0,0.0,87,0.00,,,0.00,LWC V2.00 B2112,2013-02-13 21:23:00,
2013-02-13 12:28:00,2.0,-1.0,29.83,SE,138,0.0,0.0,87,0.00,,,0.00,LWC V2.00 B2112,2013-02-13 21:28:00,
2013-02-13 12:33:00,2.3,-0.7,29.82,SE,138,0.0,1.0,87,0.00,,,0.00,LWC V2.00 B2112,2013-02-13 21:33:00,
2013-02-13 12:38:00,2.7,-0.3,29.83,SE,138,0.0,0.0,87,0.00,,,0.00,LWC V2.00 B2112,2013-02-13 21:38:00,
2013-02-13 12:43:00,2.8,-0.2,29.83,SE,138,0.0,0.0,87,0.00,,,0.00,LWC V2.00 B2112,2013-02-13 21:43:00,
2013-02-13 12:48:00,2.9,-0.1,29.83,SE,138,0.0,0.0,87,0.00,,,0.00,LWC V2.00 B2112,2013-02-13 21:48:00,
2013-02-13 12:53:00,3.2,0.2,29.82,SE,138,0.0,0.0,87,0.00,,,0.00,LWC V2.00 B2112,2013-02-13 21:53:00,
2013-02-13 12:58:00,3.5,0.5,29.83,SE,138,0.0,0.0,87,0.00,,,0.00,LWC V2.00 B2112,2013-02-13 21:58:00,
2013-02-13 13:03:00,3.7,0.7,29.83,SE,138,0.0,0.0,87,0.00,,,0.00,LWC V2.00 B2112,2013-02-13 22:03:00,
2013-02-13 13:08:00,3.8,0.8,29.82,SE,138,0.0,0.0,87,0.00,,,0.00,LWC V2.00 B2112,2013-02-13 22:08:00,
2013-02-13 13:13:00,3.8,0.8,29.82,SE,138,0.0,0.0,87,0.00,,,0.00,LWC V2.00 B2112,2013-02-13 22:13:00,
2013-02-13 13:18:00,3.9,0.9,29.83,SE,138,0.0,0.0,87,0.00,,,0.00,LWC V2.00 B2112,2013-02-13 22:18:00,
2013-02-13 13:23:00,4.2,1.2,29.83,SE,138,0.0,0.0,87,0.00,,,0.00,LWC V2.00 B2112,2013-02-13 22:23:00,
2013-02-13 13:28:00,4.5,1.5,29.83,SE,138,0.0,0.0,87,0.00,,,0.00,LWC V2.00 B2112,2013-02-13 22:28:00,
2013-02-13 13:33:00,5.0,4.6,29.83,SE,138,0.0,0.0,98,0.00,,,0.00,LWC V2.00 B2112,2013-02-13 22:33:00,
2013-02-13 13:38:00,5.6,2.8,29.83,SE,138,0.0,0.0,88,0.00,,,0.00,LWC V2.00 B2112,2013-02-13 22:38:00,
2013-02-13 13:43:00,6.2,3.4,29.83,SE,138,0.0,0.0,88,0.00,,,0.00,LWC V2.00 B2112,2013-02-13 22:43:00,
2013-02-13 13:48:00,6.8,4.0,29.83,SE,138,0.0,0.0,88,0.00,,,0.00,LWC V2.00 B2112,2013-02-13 22:48:00,
2013-02-13 13:53:00,7.3,4.5,29.83,SE,138,0.0,0.0,88,0.00,,,0.00,LWC V2.00 B2112,2013-02-13 22:53:00,
2013-02-13 13:58:00,7.6,4.8,29.82,SE,138,0.0,0.0,88,0.00,,,0.00,LWC V2.00 B2112,2013-02-13 22:58:00,
2013-02-13 14:03:00,8.0,5.2,29.82,SE,138,0.0,0.0,88,0.00,,,0.00,LWC V2.00 B2112,2013-02-13 23:03:00,
2013-02-13 14:08:00,8.4,5.6,29.82,SE,138,0.0,0.0,88,0.00,,,0.00,LWC V2.00 B2112,2013-02-13 23:08:00,
2013-02-13 14:13:00,8.6,5.8,29.82,SE,138,0.0,0.0,88,0.00,,,0.00,LWC V2.00 B2112,2013-02-13 23:13:00,
2013-02-13 14:18:00,8.6,5.8,29.82,SE,138,0.0,0.0,88,0.00,,,0.00,LWC V2.00 B2112,2013-02-13 23:18:00,
2013-02-13 14:23:00,8.6,5.8,29.82,SE,138,0.0,0.0,88,0.00,,,0.00,LWC V2.00 B2112,2013-02-13 23:23:00,
2013-02-13 14:28:00,8.6,5.8,29.82,SE,138,0.0,0.0,88,0.00,,,0.00,LWC V2.00 B2112,2013-02-13 23:28:00,
2013-02-13 14:33:00,8.5,5.7,29.81,SE,138,0.0,0.0,88,0.00,,,0.00,LWC V2.00 B2112,2013-02-13 23:33:00,
2013-02-13 14:38:00,8.4,5.6,29.82,SE,138,0.0,0.0,88,0.00,,,0.00,LWC V2.00 B2112,2013-02-13 23:38:00,
2013-02-13 14:43:00,8.1,5.3,29.81,SE,138,0.0,0.0,88,0.00,,,0.00,LWC V2.00 B2112,2013-02-13 23:43:00,
2013-02-13 14:48:00,8.1,5.3,29.81,SE,138,0.0,0.0,88,0.00,,,0.00,LWC V2.00 B2112,2013-02-13 23:48:00,
2013-02-13 14:53:00,8.2,5.4,29.81,SE,138,0.0,0.0,88,0.00,,,0.00,LWC V2.00 B2112,2013-02-13 23:53:00,
2013-02-13 14:58:00,8.3,5.2,29.81,SE,138,0.0,0.0,87,0.00,,,0.00,LWC V2.00 B2112,2013-02-13 23:58:00,
2013-02-13 15:03:00,8.5,5.4,29.80,SE,138,0.0,0.0,87,0.00,,,0.00,LWC V2.00 B2112,2013-02-14 00:03:00,
2013-02-13 15:08:00,9.1,6.3,29.80,SE,138,0.0,0.0,88,0.00,,,0.00,LWC V2.00 B2112,2013-02-14 00:08:00,
2013-02-13 15:13:00,9.7,6.9,29.80,SE,138,0.0,0.0,88,0.00,,,0.00,LWC V2.00 B2112,2013-02-14 00:13:00,
2013-02-13 15:18:00,10.0,7.2,29.80,SE,138,0.0,0.0,88,0.00,,,0.00,LWC V2.00 B2112,2013-02-14 00:18:00,
2013-02-13 15:23:00,10.3,7.5,29.80,SE,138,0.0,0.0,88,0.00,,,0.00,LWC V2.00 B2112,2013-02-14 00:23:00,
2013-02-13 15:28:00,10.8,8.0,29.80,SE,138,0.0,0.0,88,0.00,,,0.00,LWC V2.00 B2112,2013-02-14 00:28:00,
2013-02-13 15:33:00,11.2,8.4,29.80,SE,138,0.0,0.0,88,0.00,,,0.00,LWC V2.00 B2112,2013-02-14 00:33:00,
2013-02-13 15:38:00,11.8,8.9,29.80,SE,138,0.0,0.0,88,0.00,,,0.00,LWC V2.00 B2112,2013-02-14 00:38:00,
2013-02-13 15:43:00,12.2,9.3,29.80,SE,138,0.0,0.0,88,0.00,,,0.00,LWC V2.00 B2112,2013-02-14 00:43:00,
2013-02-13 15:48:00,12.2,9.1,29.80,SE,138,0.0,0.0,87,0.00,,,0.00,LWC V2.00 B2112,2013-02-14 00:48:00,
2013-02-13 15:53:00,12.4,9.3,29.80,SE,138,0.0,0.0,87,0.00,,,0.00,LWC V2.00 B2112,2013-02-14 00:53:00,
2013-02-13 15:58:00,12.6,9.5,29.80,SE,138,0.0,0.0,87,0.00,,,0.00,LWC V2.00 B2112,2013-02-14 00:58:00,
2013-02-13 16:03:00,12.4,9.0,29.79,SE,138,0.0,0.0,86,0.00,,,0.00,LWC V2.00 B2112,2013-02-14 01:03:00,
2013-02-13 16:08:00,12.3,8.9,29.79,SE,138,0.0,0.0,86,0.00,,,0.00,LWC V2.00 B2112,2013-02-14 01:08:00,
2013-02-13 16:13:00,12.2,8.8,29.79,SE,138,0.0,0.0,86,0.00,,,0.00,LWC V2.00 B2112,2013-02-14 01:13:00,
2013-02-13 16:18:00,12.0,8.6,29.79,SE,138,0.0,0.0,86,0.00,,,0.00,LWC V2.00 B2112,2013-02-14 01:18:00,
2013-02-13 16:23:00,11.9,8.8,29.80,SE,138,0.0,0.0,87,0.00,,,0.00,LWC V2.00 B2112,2013-02-14 01:23:00,
2013-02-13 16:28:00,12.0,8.9,29.79,SE,138,0.0,0.0,87,0.00,,,0.00,LWC V2.00 B2112,2013-02-14 01:28:00,
2013-02-13 16:33:00,12.2,9.1,29.79,SE,138,0.0,0.0,87,0.00,,,0.00,LWC V2.00 B2112,2013-02-14 01:33:00,
2013-02-13 16:38:00,12.2,9.1,29.79,SE,138,0.0,0.0,87,0.00,,,0.00,LWC V2.00 B2112,2013-02-14 01:38:00,
2013-02-13 16:43:00,12.2,9.1,29.79,SE,138,0.0,0.0,87,0.00,,,0.00,LWC V2.00 B2112,2013-02-14 01:43:00,
2013-02-13 16:48:00,12.3,9.2,29.79,SE,138,0.0,0.0,87,0.00,,,0.00,LWC V2.00 B2112,2013-02-14 01:48:00,
2013-02-13 16:53:00,12.4,9.3,29.79,SE,138,0.0,0.0,87,0.00,,,0.00,LWC V2.00 B2112,2013-02-14 01:53:00,
2013-02-13 16:58:00,12.3,9.2,29.79,SE,138,0.0,0.0,87,0.00,,,0.00,LWC V2.00 B2112,2013-02-14 01:58:00,
2013-02-13 17:03:00,12.2,9.3,29.79,SE,138,0.0,0.0,88,0.00,,,0.00,LWC V2.00 B2112,2013-02-14 02:03:00,
2013-02-13 17:08:00,11.9,8.8,29.79,SE,138,0.0,0.0,87,0.00,,,0.00,LWC V2.00 B2112,2013-02-14 02:08:00,
2013-02-13 17:13:00,11.5,8.4,29.79,SE,138,0.0,0.0,87,0.00,,,0.00,LWC V2.00 B2112,2013-02-14 02:13:00,
2013-02-13 17:18:00,11.1,8.0,29.79,SE,138,0.0,0.0,87,0.00,,,0.00,LWC V2.00 B2112,2013-02-14 02:18:00,
2013-02-13 17:23:00,10.8,7.7,29.79,SE,138,0.0,0.0,87,0.00,,,0.00,LWC V2.00 B2112,2013-02-14 02:23:00,
2013-02-13 17:28:00,10.4,7.3,29.79,SE,138,0.0,0.0,87,0.00,,,0.00,LWC V2.00 B2112,2013-02-14 02:28:00,
2013-02-13 17:33:00,10.1,7.0,29.79,SE,138,0.0,0.0,87,0.00,,,0.00,LWC V2.00 B2112,2013-02-14 02:33:00,
2013-02-13 17:38:00,9.8,7.0,29.79,SE,138,0.0,0.0,88,0.00,,,0.00,LWC V2.00 B2112,2013-02-14 02:38:00,
2013-02-13 17:43:00,9.4,6.6,29.79,SE,138,0.0,0.0,88,0.00,,,0.00,LWC V2.00 B2112,2013-02-14 02:43:00,
2013-02-13 17:48:00,9.2,6.4,29.79,SE,138,0.0,0.0,88,0.00,,,0.00,LWC V2.00 B2112,2013-02-14 02:48:00,
2013-02-13 17:53:00,9.0,6.2,29.79,SE,138,0.0,0.0,88,0.00,,,0.00,LWC V2.00 B2112,2013-02-14 02:53:00,
2013-02-13 17:58:00,8.6,5.8,29.79,SE,138,0.0,0.0,88,0.00,,,0.00,LWC V2.00 B2112,2013-02-14 02:58:00,
2013-02-13 18:03:00,8.3,5.5,29.79,SE,138,0.0,0.0,88,0.00,,,0.00,LWC V2.00 B2112,2013-02-14 03:03:00,
2013-02-13 18:08:00,8.1,5.3,29.79,SE,138,0.0,0.0,88,0.00,,,0.00,LWC V2.00 B2112,2013-02-14 03:08:00,
2013-02-13 18:13:00,7.8,5.0,29.79,SE,138,0.0,0.0,88,0.00,,,0.00,LWC V2.00 B2112,2013-02-14 03:13:00,
2013-02-13 18:18:00,7.5,4.7,29.79,SE,138,0.0,0.0,88,0.00,,,0.00,LWC V2.00 B2112,2013-02-14 03:18:00,
2013-02-13 18:23:00,7.3,4.5,29.79,SE,138,0.0,0.0,88,0.00,,,0.00,LWC V2.00 B2112,2013-02-14 03:23:00,
2013-02-13 18:28:00,7.1,4.3,29.79,SE,138,0.0,0.0,88,0.00,,,0.00,LWC V2.00 B2112,2013-02-14 03:28:00,
2013-02-13 18:33:00,6.9,4.1,29.79,SE,138,0.0,0.0,88,0.00,,,0.00,LWC V2.00 B2112,2013-02-14 03:33:00,
2013-02-13 18:38:00,6.7,3.9,29.79,SE,138,0.0,0.0,88,0.00,,,0.00,LWC V2.00 B2112,2013-02-14 03:38:00,
2013-02-13 18:43:00,6.4,3.6,29.80,SE,138,0.0,0.0,88,0.00,,,0.00,LWC V2.00 B2112,2013-02-14 03:43:00,
2013-02-13 18:48:00,6.2,3.4,29.79,SE,138,0.0,0.0,88,0.00,,,0.00,LWC V2.00 B2112,2013-02-14 03:48:00,
2013-02-13 18:53:00,6.1,3.3,29.79,SE,138,0.0,0.0,88,0.00,,,0.00,LWC V2.00 B2112,2013-02-14 03:53:00,
2013-02-13 18:58:00,6.0,3.2,29.79,SE,138,0.0,0.0,88,0.00,,,0.00,LWC V2.00 B2112,2013-02-14 03:58:00,
2013-02-13 19:03:00,5.9,3.1,29.79,SE,138,0.0,0.0,88,0.00,,,0.00,LWC V2.00 B2112,2013-02-14 04:03:00,
2013-02-13 19:08:00,5.6,2.8,29.79,SE,138,0.0,0.0,88,0.00,,,0.00,LWC V2.00 B2112,2013-02-14 04:08:00,
2013-02-13 19:13:00,5.4,2.6,29.79,SE,138,0.0,0.0,88,0.00,,,0.00,LWC V2.00 B2112,2013-02-14 04:13:00,
2013-02-13 19:18:00,5.2,2.4,29.79,SE,138,0.0,0.0,88,0.00,,,0.00,LWC V2.00 B2112,2013-02-14 04:18:00,
2013-02-13 19:23:00,5.0,2.2,29.79,SE,138,0.0,0.0,88,0.00,,,0.00,LWC V2.00 B2112,2013-02-14 04:23:00,
2013-02-13 19:28:00,4.9,2.1,29.79,SE,138,0.0,0.0,88,0.00,,,0.00,LWC V2.00 B2112,2013-02-14 04:28:00,
2013-02-13 19:33:00,4.7,1.9,29.79,SE,138,0.0,0.0,88,0.00,,,0.00,LWC V2.00 B2112,2013-02-14 04:33:00,
2013-02-13 19:38:00,4.5,1.7,29.79,SE,138,0.0,0.0,88,0.00,,,0.00,LWC V2.00 B2112,2013-02-14 04:38:00,
2013-02-13 19:43:00,4.3,1.5,29.79,SE,138,0.0,0.0,88,0.00,,,0.00,LWC V2.00 B2112,2013-02-14 04:43:00,
2013-02-13 19:48:00,4.2,1.5,29.79,SE,138,0.0,0.0,88,0.00,,,0.00,LWC V2.00 B2112,2013-02-14 04:48:00,
2013-02-13 19:53:00,4.1,1.4,29.79,SE,138,0.0,0.0,88,0.00,,,0.00,LWC V2.00 B2112,2013-02-14 04:53:00,
2013-02-13 19:58:00,4.0,1.3,29.79,SE,138,0.0,0.0,88,0.00,,,0.00,LWC V2.00 B2112,2013-02-14 04:58:00,
2013-02-13 20:00:00,4.0,1.3,29.79,SE,138,0.0,0.0,88,0.00,,,0.00,LWC V2.00 B2112,2013-02-14 05:00:00,
2013-02-13 20:05:00,3.8,1.1,29.79,SE,138,0.0,0.0,88,0.00,,,0.00,LWC V2.00 B2112,2013-02-14 05:05:00,
2013-02-13 20:10:00,3.6,0.9,29.79,SE,138,0.0,0.0,88,0.00,,,0.00,LWC V2.00 B2112,2013-02-14 05:10:00,
2013-02-13 20:15:00,3.4,0.7,29.79,SE,138,0.0,0.0,88,0.00,,,0.00,LWC V2.00 B2112,2013-02-14 05:15:00,
2013-02-13 20:20:00,3.3,0.6,29.79,SE,138,0.0,0.0,88,0.00,,,0.00,LWC V2.00 B2112,2013-02-14 05:20:00,
2013-02-13 20:25:00,3.3,0.6,29.79,SE,138,0.0,0.0,88,0.00,,,0.00,LWC V2.00 B2112,2013-02-14 05:25:00,
2013-02-13 20:30:00,3.2,0.5,29.79,SE,138,0.0,0.0,88,0.00,,,0.00,LWC V2.00 B2112,2013-02-14 05:30:00,
2013-02-13 20:35:00,3.1,0.4,29.79,SE,138,0.0,0.0,88,0.00,,,0.00,LWC V2.00 B2112,2013-02-14 05:35:00,
2013-02-13 20:40:00,3.1,0.4,29.79,SE,138,0.0,0.0,88,0.00,,,0.00,LWC V2.00 B2112,2013-02-14 05:40:00,
2013-02-13 20:45:00,2.9,0.2,29.79,SE,138,0.0,0.0,88,0.00,,,0.00,LWC V2.00 B2112,2013-02-14 05:45:00,
2013-02-13 20:50:00,2.9,0.2,29.79,SE,138,0.0,0.0,88,0.00,,,0.00,LWC V2.00 B2112,2013-02-14 05:50:00,
2013-02-13 20:55:00,3.1,0.4,29.79,SE,138,0.0,0.0,88,0.00,,,0.00,LWC V2.00 B2112,2013-02-14 05:55:00,
2013-02-13 21:00:00,3.1,0.4,29.79,SE,138,0.0,0.0,88,0.00,,,0.00,LWC V2.00 B2112,2013-02-14 06:00:00,
2013-02-13 21:05:00,2.9,0.2,29.79,SE,138,0.0,0.0,88,0.00,,,0.00,LWC V2.00 B2112,2013-02-14 06:05:00,
2013-02-13 21:10:00,2.9,0.2,29.79,SE,138,0.0,0.0,88,0.00,,,0.00,LWC V2.00 B2112,2013-02-14 06:10:00,
2013-02-13 21:15:00,2.8,0.1,29.79,SE,138,0.0,0.0,88,0.00,,,0.00,LWC V2.00 B2112,2013-02-14 06:15:00,
2013-02-13 21:20:00,-999.0,-99.9,-100.00,North,-999,-999.0,0.0,-999,-99.99,,,0.00,LWC V2.00 B2112,2013-02-14 06:20:00,
2013-02-13 21:25:00,2.8,0.1,29.79,SE,138,0.0,0.0,88,0.00,,,0.00,LWC V2.00 B2112,2013-02-14 06:25:00,
2013-02-13 21:30:00,2.7,0.0,29.79,SE,138,0.0,0.0,88,0.00,,,0.00,LWC V2.00 B2112,2013-02-14 06:30:00,
2013-02-13 21:35:00,2.7,0.0,29.79,SE,138,0.0,0.0,88,0.00,,,0.00,LWC V2.00 B2112,2013-02-14 06:35:00,
2013-02-13 21:40:00,2.6,-0.1,29.79,SE,138,0.0,0.0,88,0.00,,,0.00,LWC V2.00 B2112,2013-02-14 06:40:00,
2013-02-13 21:45:00,2.6,-0.1,29.79,SE,138,0.0,0.0,88,0.00,,,0.00,LWC V2.00 B2112,2013-02-14 06:45:00,
2013-02-13 21:50:00,2.6,-0.1,29.79,SE,138,0.0,0.0,88,0.00,,,0.00,LWC V2.00 B2112,2013-02-14 06:50:00,
2013-02-13 21:55:00,2.7,0.0,29.80,SE,138,0.0,0.0,88,0.00,,,0.00,LWC V2.00 B2112,2013-02-14 06:55:00,
2013-02-13 22:00:00,2.6,-0.1,29.79,SE,138,0.0,0.0,88,0.00,,,0.00,LWC V2.00 B2112,2013-02-14 07:00:00,
2013-02-13 22:05:00,2.4,-0.3,29.80,SE,138,0.0,0.0,88,0.00,,,0.00,LWC V2.00 B2112,2013-02-14 07:05:00,
2013-02-13 22:10:00,2.3,-0.4,29.80,SE,138,0.0,0.0,88,0.00,,,0.00,LWC V2.00 B2112,2013-02-14 07:10:00,
2013-02-13 22:15:00,2.2,-0.5,29.80,SE,138,0.0,0.0,88,0.00,,,0.00,LWC V2.00 B2112,2013-02-14 07:15:00,
2013-02-13 22:20:00,2.0,-0.7,29.79,SE,138,0.0,0.0,88,0.00,,,0.00,LWC V2.00 B2112,2013-02-14 07:20:00,
2013-02-13 22:25:00,1.9,-0.8,29.79,SE,138,0.0,0.0,88,0.00,,,0.00,LWC V2.00 B2112,2013-02-14 07:25:00,
2013-02-13 22:30:00,1.7,-1.3,29.79,SE,138,0.0,0.0,87,0.00,,,0.00,LWC V2.00 B2112,2013-02-14 07:30:00,
2013-02-13 22:35:00,1.5,-1.5,29.79,SE,138,0.0,0.0,87,0.00,,,0.00,LWC V2.00 B2112,2013-02-14 07:35:00,
2013-02-13 22:40:00,1.3,-1.6,29.79,SE,138,0.0,0.0,87,0.00,,,0.00,LWC V2.00 B2112,2013-02-14 07:40:00,
2013-02-13 22:45:00,1.4,-1.6,29.79,SE,138,0.0,0.0,87,0.00,,,0.00,LWC V2.00 B2112,2013-02-14 07:45:00,
2013-02-13 22:50:00,1.3,-1.4,29.79,SE,138,0.0,0.0,88,0.00,,,0.00,LWC V2.00 B2112,2013-02-14 07:50:00,
2013-02-13 22:55:00,1.2,-1.7,29.79,SE,138,0.0,0.0,87,0.00,,,0.00,LWC V2.00 B2112,2013-02-14 07:55:00,
2013-02-13 23:00:00,1.0,-1.9,29.80,SE,138,0.0,0.0,87,0.00,,,0.00,LWC V2.00 B2112,2013-02-14 08:00:00,
2013-02-13 23:05:00,1.0,-1.9,29.79,SE,138,0.0,0.0,87,0.00,,,0.00,LWC V2.00 B2112,2013-02-14 08:05:00,
2013-02-13 23:10:00,1.0,-1.9,29.80,SE,138,0.0,0.0,87,0.00,,,0.00,LWC V2.00 B2112,2013-02-14 08:10:00,
2013-02-13 23:15:00,1.1,-1.6,29.80,SE,138,0.0,0.0,88,0.00,,,0.00,LWC V2.00 B2112,2013-02-14 08:15:00,
2013-02-13 23:20:00,1.1,-1.6,29.80,SE,138,0.0,0.0,88,0.00,,,0.00,LWC V2.00 B2112,2013-02-14 08:20:00,
2013-02-13 23:25:00,1.1,-1.6,29.80,SE,138,0.0,0.0,88,0.00,,,0.00,LWC V2.00 B2112,2013-02-14 08:25:00,
2013-02-13 23:30:00,1.1,-1.6,29.80,SE,138,0.0,0.0,88,0.00,,,0.00,LWC V2.00 B2112,2013-02-14 08:30:00,
2013-02-13 23:35:00,1.1,-1.6,29.80,SE,138,0.0,0.0,88,0.00,,,0.00,LWC V2.00 B2112,2013-02-14 08:35:00,
2013-02-13 23:40:00,1.1,-1.6,29.80,SE,138,0.0,0.0,88,0.00,,,0.00,LWC V2.00 B2112,2013-02-14 08:40:00,
2013-02-13 23:45:00,1.2,-1.7,29.80,SE,138,0.0,0.0,87,0.00,,,0.00,LWC V2.00 B2112,2013-02-14 08:45:00,
2013-02-13 23:50:00,1.3,-1.6,29.80,SE,138,0.0,0.0,87,0.00,,,0.00,LWC V2.00 B2112,2013-02-14 08:50:00,
2013-02-13 23:55:00,1.4,-1.3,29.80,SE,138,0.0,0.0,88,0.00,,,0.00,LWC V2.00 B2112,2013-02-14 08:55:00,